sensor_id;sensor_type;location;lat;lon;timestamp;temperature;humidity
16408;DHT22;8313;49.894;8.084;2023-05-23T00:00:26;20.30;99.90
16408;DHT22;8313;49.894;8.084;2023-05-23T00:02:53;20.30;99.90
16408;DHT22;8313;49.894;8.084;2023-05-23T00:05:18;20.30;99.90
16408;DHT22;8313;49.894;8.084;2023-05-23T00:07:44;20.40;99.90
16408;DHT22;8313;49.894;8.084;2023-05-23T00:10:10;20.40;99.90
16408;DHT22;8313;49.894;8.084;2023-05-23T00:12:36;20.30;99.90
16408;DHT22;8313;49.894;8.084;2023-05-23T00:15:04;20.10;99.90
16408;DHT22;8313;49.894;8.084;2023-05-23T00:17:32;20.10;99.90
16408;DHT22;8313;49.894;8.084;2023-05-23T00:19:58;20.20;99.90
16408;DHT22;8313;49.894;8.084;2023-05-23T00:22:24;20.30;99.90
16408;DHT22;8313;49.894;8.084;2023-05-23T00:24:49;20.30;99.90
16408;DHT22;8313;49.894;8.084;2023-05-23T00:27:15;20.40;99.90
16408;DHT22;8313;49.894;8.084;2023-05-23T00:29:41;20.20;99.90
16408;DHT22;8313;49.894;8.084;2023-05-23T00:32:07;20.20;99.90
16408;DHT22;8313;49.894;8.084;2023-05-23T00:34:33;20.30;99.90
16408;DHT22;8313;49.894;8.084;2023-05-23T00:36:58;20.40;99.90
16408;DHT22;8313;49.894;8.084;2023-05-23T00:39:26;20.50;99.90
16408;DHT22;8313;49.894;8.084;2023-05-23T00:41:52;20.40;99.90
16408;DHT22;8313;49.894;8.084;2023-05-23T00:44:18;20.40;99.90
16408;DHT22;8313;49.894;8.084;2023-05-23T00:46:47;20.30;99.90
16408;DHT22;8313;49.894;8.084;2023-05-23T00:49:14;20.30;99.90
16408;DHT22;8313;49.894;8.084;2023-05-23T00:51:40;20.30;99.90
16408;DHT22;8313;49.894;8.084;2023-05-23T00:54:08;20.20;99.90
16408;DHT22;8313;49.894;8.084;2023-05-23T00:56:34;20.20;99.90
16408;DHT22;8313;49.894;8.084;2023-05-23T00:59:01;20.20;99.90
16408;DHT22;8313;49.894;8.084;2023-05-23T01:01:26;20.10;99.90
16408;DHT22;8313;49.894;8.084;2023-05-23T01:03:52;20.20;99.90
16408;DHT22;8313;49.894;8.084;2023-05-23T01:06:19;20.10;99.90
16408;DHT22;8313;49.894;8.084;2023-05-23T01:08:44;20.20;99.90
16408;DHT22;8313;49.894;8.084;2023-05-23T01:11:27;20.10;99.90
16408;DHT22;8313;49.894;8.084;2023-05-23T01:14:00;20.20;99.90
16408;DHT22;8313;49.894;8.084;2023-05-23T01:22:20;20.10;99.90
16408;DHT22;8313;49.894;8.084;2023-05-23T01:27:48;20.00;99.90
16408;DHT22;8313;49.894;8.084;2023-05-23T01:30:17;19.90;99.90
16408;DHT22;8313;49.894;8.084;2023-05-23T01:32:47;20.00;99.90
16408;DHT22;8313;49.894;8.084;2023-05-23T01:35:23;19.90;99.90
16408;DHT22;8313;49.894;8.084;2023-05-23T01:37:49;19.90;99.90
16408;DHT22;8313;49.894;8.084;2023-05-23T01:40:15;19.90;99.90
16408;DHT22;8313;49.894;8.084;2023-05-23T01:42:41;19.90;99.90
16408;DHT22;8313;49.894;8.084;2023-05-23T01:45:07;19.90;99.90
16408;DHT22;8313;49.894;8.084;2023-05-23T01:47:34;19.90;99.90
16408;DHT22;8313;49.894;8.084;2023-05-23T01:50:01;19.90;99.90
16408;DHT22;8313;49.894;8.084;2023-05-23T01:52:28;19.90;99.90
16408;DHT22;8313;49.894;8.084;2023-05-23T01:54:54;19.80;99.90
16408;DHT22;8313;49.894;8.084;2023-05-23T01:57:21;19.80;99.90
16408;DHT22;8313;49.894;8.084;2023-05-23T01:59:49;19.70;99.90
16408;DHT22;8313;49.894;8.084;2023-05-23T02:02:14;19.60;99.90
16408;DHT22;8313;49.894;8.084;2023-05-23T02:04:40;19.50;99.90
16408;DHT22;8313;49.894;8.084;2023-05-23T02:07:06;19.50;99.90
16408;DHT22;8313;49.894;8.084;2023-05-23T02:09:31;19.50;99.90
16408;DHT22;8313;49.894;8.084;2023-05-23T02:11:57;19.40;99.90
16408;DHT22;8313;49.894;8.084;2023-05-23T02:14:24;19.50;99.90
16408;DHT22;8313;49.894;8.084;2023-05-23T02:16:50;19.40;99.90
16408;DHT22;8313;49.894;8.084;2023-05-23T02:19:17;19.40;99.90
16408;DHT22;8313;49.894;8.084;2023-05-23T02:21:45;19.30;99.90
16408;DHT22;8313;49.894;8.084;2023-05-23T02:24:10;19.20;99.90
16408;DHT22;8313;49.894;8.084;2023-05-23T02:26:36;19.10;99.90
16408;DHT22;8313;49.894;8.084;2023-05-23T02:29:02;19.10;99.90
16408;DHT22;8313;49.894;8.084;2023-05-23T02:31:28;19.00;99.90
16408;DHT22;8313;49.894;8.084;2023-05-23T02:33:53;18.90;99.90
16408;DHT22;8313;49.894;8.084;2023-05-23T02:36:19;18.90;99.90
16408;DHT22;8313;49.894;8.084;2023-05-23T02:38:45;18.90;99.90
16408;DHT22;8313;49.894;8.084;2023-05-23T02:41:11;18.90;99.90
16408;DHT22;8313;49.894;8.084;2023-05-23T02:43:37;18.90;99.90
16408;DHT22;8313;49.894;8.084;2023-05-23T02:46:03;18.90;99.90
16408;DHT22;8313;49.894;8.084;2023-05-23T02:48:29;18.90;99.90
16408;DHT22;8313;49.894;8.084;2023-05-23T02:50:55;18.80;99.90
16408;DHT22;8313;49.894;8.084;2023-05-23T02:53:21;18.90;99.90
16408;DHT22;8313;49.894;8.084;2023-05-23T02:55:47;18.90;99.90
16408;DHT22;8313;49.894;8.084;2023-05-23T02:58:13;18.70;99.90
16408;DHT22;8313;49.894;8.084;2023-05-23T03:00:39;18.80;99.90
16408;DHT22;8313;49.894;8.084;2023-05-23T03:03:05;18.70;99.90
16408;DHT22;8313;49.894;8.084;2023-05-23T03:05:30;18.70;99.90
16408;DHT22;8313;49.894;8.084;2023-05-23T03:07:56;18.60;99.90
16408;DHT22;8313;49.894;8.084;2023-05-23T03:10:22;18.50;99.90
16408;DHT22;8313;49.894;8.084;2023-05-23T03:12:48;18.50;99.90
16408;DHT22;8313;49.894;8.084;2023-05-23T03:15:15;18.50;99.90
16408;DHT22;8313;49.894;8.084;2023-05-23T03:17:42;18.40;99.90
16408;DHT22;8313;49.894;8.084;2023-05-23T03:20:08;18.40;99.90
16408;DHT22;8313;49.894;8.084;2023-05-23T03:22:34;18.30;99.90
16408;DHT22;8313;49.894;8.084;2023-05-23T03:25:02;18.30;99.90
16408;DHT22;8313;49.894;8.084;2023-05-23T03:27:28;18.40;99.90
16408;DHT22;8313;49.894;8.084;2023-05-23T03:29:54;18.20;99.90
16408;DHT22;8313;49.894;8.084;2023-05-23T03:32:20;18.20;99.90
16408;DHT22;8313;49.894;8.084;2023-05-23T03:34:45;18.10;99.90
16408;DHT22;8313;49.894;8.084;2023-05-23T03:37:11;18.10;99.90
16408;DHT22;8313;49.894;8.084;2023-05-23T03:39:37;18.20;99.90
16408;DHT22;8313;49.894;8.084;2023-05-23T03:42:03;18.20;99.90
16408;DHT22;8313;49.894;8.084;2023-05-23T03:44:28;18.20;99.90
16408;DHT22;8313;49.894;8.084;2023-05-23T03:46:54;18.10;99.90
16408;DHT22;8313;49.894;8.084;2023-05-23T03:49:20;18.00;99.90
16408;DHT22;8313;49.894;8.084;2023-05-23T03:51:46;18.00;99.90
16408;DHT22;8313;49.894;8.084;2023-05-23T03:54:14;18.10;99.90
16408;DHT22;8313;49.894;8.084;2023-05-23T03:56:42;18.00;99.90
16408;DHT22;8313;49.894;8.084;2023-05-23T03:59:08;17.90;99.90
16408;DHT22;8313;49.894;8.084;2023-05-23T04:01:34;17.80;99.90
16408;DHT22;8313;49.894;8.084;2023-05-23T04:04:01;17.70;99.90
16408;DHT22;8313;49.894;8.084;2023-05-23T04:06:31;17.90;99.90
16408;DHT22;8313;49.894;8.084;2023-05-23T04:08:58;17.80;99.90
16408;DHT22;8313;49.894;8.084;2023-05-23T04:11:24;17.80;99.90
16408;DHT22;8313;49.894;8.084;2023-05-23T04:13:50;17.70;99.90
16408;DHT22;8313;49.894;8.084;2023-05-23T04:16:16;17.80;99.90
16408;DHT22;8313;49.894;8.084;2023-05-23T04:18:42;17.70;99.90
16408;DHT22;8313;49.894;8.084;2023-05-23T04:21:12;17.70;99.90
16408;DHT22;8313;49.894;8.084;2023-05-23T04:23:46;17.80;99.90
16408;DHT22;8313;49.894;8.084;2023-05-23T04:26:12;17.70;99.90
16408;DHT22;8313;49.894;8.084;2023-05-23T04:28:43;17.80;99.90
16408;DHT22;8313;49.894;8.084;2023-05-23T04:31:11;17.80;99.90
16408;DHT22;8313;49.894;8.084;2023-05-23T04:33:37;17.80;99.90
16408;DHT22;8313;49.894;8.084;2023-05-23T04:36:03;17.80;99.90
16408;DHT22;8313;49.894;8.084;2023-05-23T04:38:30;17.80;99.90
16408;DHT22;8313;49.894;8.084;2023-05-23T04:40:56;17.90;99.90
16408;DHT22;8313;49.894;8.084;2023-05-23T04:44:00;17.90;99.90
16408;DHT22;8313;49.894;8.084;2023-05-23T04:46:32;18.00;99.90
16408;DHT22;8313;49.894;8.084;2023-05-23T04:49:08;17.90;99.90
16408;DHT22;8313;49.894;8.084;2023-05-23T04:51:34;17.80;99.90
16408;DHT22;8313;49.894;8.084;2023-05-23T04:54:10;17.70;99.90
16408;DHT22;8313;49.894;8.084;2023-05-23T04:56:36;17.60;99.90
16408;DHT22;8313;49.894;8.084;2023-05-23T04:59:02;17.50;99.90
16408;DHT22;8313;49.894;8.084;2023-05-23T05:01:28;17.60;99.90
16408;DHT22;8313;49.894;8.084;2023-05-23T05:03:54;17.50;99.90
16408;DHT22;8313;49.894;8.084;2023-05-23T05:06:22;17.50;99.90
16408;DHT22;8313;49.894;8.084;2023-05-23T05:08:48;17.60;99.90
16408;DHT22;8313;49.894;8.084;2023-05-23T05:11:14;17.50;99.90
16408;DHT22;8313;49.894;8.084;2023-05-23T05:13:40;17.40;99.90
16408;DHT22;8313;49.894;8.084;2023-05-23T05:16:06;17.50;99.90
16408;DHT22;8313;49.894;8.084;2023-05-23T05:18:33;17.50;99.90
16408;DHT22;8313;49.894;8.084;2023-05-23T05:20:59;17.60;99.90
16408;DHT22;8313;49.894;8.084;2023-05-23T05:23:26;17.60;99.90
16408;DHT22;8313;49.894;8.084;2023-05-23T05:25:55;17.50;99.90
16408;DHT22;8313;49.894;8.084;2023-05-23T05:28:22;17.50;99.90
16408;DHT22;8313;49.894;8.084;2023-05-23T05:30:50;17.60;99.90
16408;DHT22;8313;49.894;8.084;2023-05-23T05:33:21;17.60;99.90
16408;DHT22;8313;49.894;8.084;2023-05-23T05:35:56;17.50;99.90
16408;DHT22;8313;49.894;8.084;2023-05-23T05:38:22;17.50;99.90
16408;DHT22;8313;49.894;8.084;2023-05-23T05:40:48;17.40;99.90
16408;DHT22;8313;49.894;8.084;2023-05-23T05:43:14;17.40;99.90
16408;DHT22;8313;49.894;8.084;2023-05-23T05:45:40;17.50;99.90
16408;DHT22;8313;49.894;8.084;2023-05-23T05:48:06;17.40;99.90
16408;DHT22;8313;49.894;8.084;2023-05-23T05:50:33;17.40;99.90
16408;DHT22;8313;49.894;8.084;2023-05-23T05:52:59;17.40;99.90
16408;DHT22;8313;49.894;8.084;2023-05-23T05:55:25;17.40;99.90
16408;DHT22;8313;49.894;8.084;2023-05-23T05:57:53;17.50;99.90
16408;DHT22;8313;49.894;8.084;2023-05-23T06:00:20;17.50;99.90
16408;DHT22;8313;49.894;8.084;2023-05-23T06:02:50;17.50;99.90
16408;DHT22;8313;49.894;8.084;2023-05-23T06:05:29;17.50;99.90
16408;DHT22;8313;49.894;8.084;2023-05-23T06:07:55;17.60;99.90
16408;DHT22;8313;49.894;8.084;2023-05-23T06:10:20;17.60;99.90
16408;DHT22;8313;49.894;8.084;2023-05-23T06:12:46;17.50;99.90
16408;DHT22;8313;49.894;8.084;2023-05-23T06:15:12;17.60;99.90
16408;DHT22;8313;49.894;8.084;2023-05-23T06:17:39;17.50;99.90
16408;DHT22;8313;49.894;8.084;2023-05-23T06:20:06;17.50;99.90
16408;DHT22;8313;49.894;8.084;2023-05-23T06:22:33;17.40;99.90
16408;DHT22;8313;49.894;8.084;2023-05-23T06:24:58;17.40;99.90
16408;DHT22;8313;49.894;8.084;2023-05-23T06:27:24;17.50;99.90
16408;DHT22;8313;49.894;8.084;2023-05-23T06:29:50;17.50;99.90
16408;DHT22;8313;49.894;8.084;2023-05-23T06:32:15;17.50;99.90
16408;DHT22;8313;49.894;8.084;2023-05-23T06:34:41;17.40;99.90
16408;DHT22;8313;49.894;8.084;2023-05-23T06:37:07;17.40;99.90
16408;DHT22;8313;49.894;8.084;2023-05-23T06:39:33;17.40;99.90
16408;DHT22;8313;49.894;8.084;2023-05-23T06:41:59;17.40;99.90
16408;DHT22;8313;49.894;8.084;2023-05-23T06:44:34;17.40;99.90
16408;DHT22;8313;49.894;8.084;2023-05-23T06:47:01;17.40;99.90
16408;DHT22;8313;49.894;8.084;2023-05-23T06:49:27;17.40;99.90
16408;DHT22;8313;49.894;8.084;2023-05-23T06:51:53;17.40;99.90
16408;DHT22;8313;49.894;8.084;2023-05-23T06:54:18;17.50;99.90
16408;DHT22;8313;49.894;8.084;2023-05-23T06:56:44;17.50;99.90
16408;DHT22;8313;49.894;8.084;2023-05-23T06:59:10;17.60;99.90
16408;DHT22;8313;49.894;8.084;2023-05-23T07:01:36;17.60;99.90
16408;DHT22;8313;49.894;8.084;2023-05-23T07:04:02;17.50;99.90
16408;DHT22;8313;49.894;8.084;2023-05-23T07:06:28;17.60;99.90
16408;DHT22;8313;49.894;8.084;2023-05-23T07:08:54;17.60;99.90
16408;DHT22;8313;49.894;8.084;2023-05-23T07:11:21;17.60;99.90
16408;DHT22;8313;49.894;8.084;2023-05-23T07:13:54;17.60;99.90
16408;DHT22;8313;49.894;8.084;2023-05-23T07:16:31;17.60;99.90
16408;DHT22;8313;49.894;8.084;2023-05-23T07:19:01;17.60;99.90
16408;DHT22;8313;49.894;8.084;2023-05-23T07:21:28;17.50;99.90
16408;DHT22;8313;49.894;8.084;2023-05-23T07:23:54;17.50;99.90
16408;DHT22;8313;49.894;8.084;2023-05-23T07:26:21;17.50;99.90
16408;DHT22;8313;49.894;8.084;2023-05-23T07:28:50;17.60;99.90
16408;DHT22;8313;49.894;8.084;2023-05-23T07:31:16;17.60;99.90
16408;DHT22;8313;49.894;8.084;2023-05-23T07:33:43;17.70;99.90
16408;DHT22;8313;49.894;8.084;2023-05-23T07:36:11;17.60;99.90
16408;DHT22;8313;49.894;8.084;2023-05-23T07:38:36;17.50;99.90
16408;DHT22;8313;49.894;8.084;2023-05-23T07:41:02;17.50;99.90
16408;DHT22;8313;49.894;8.084;2023-05-23T07:43:28;17.60;99.90
16408;DHT22;8313;49.894;8.084;2023-05-23T07:45:54;17.70;99.90
16408;DHT22;8313;49.894;8.084;2023-05-23T07:48:19;17.70;99.90
16408;DHT22;8313;49.894;8.084;2023-05-23T07:50:46;17.80;99.90
16408;DHT22;8313;49.894;8.084;2023-05-23T07:53:11;17.70;99.90
16408;DHT22;8313;49.894;8.084;2023-05-23T07:55:38;17.70;99.90
16408;DHT22;8313;49.894;8.084;2023-05-23T07:58:04;17.70;99.90
16408;DHT22;8313;49.894;8.084;2023-05-23T08:00:30;17.70;99.90
16408;DHT22;8313;49.894;8.084;2023-05-23T08:03:03;17.80;99.90
16408;DHT22;8313;49.894;8.084;2023-05-23T08:05:35;17.80;99.90
16408;DHT22;8313;49.894;8.084;2023-05-23T08:08:01;17.70;99.90
16408;DHT22;8313;49.894;8.084;2023-05-23T08:10:26;17.80;99.90
16408;DHT22;8313;49.894;8.084;2023-05-23T08:12:58;17.80;99.90
16408;DHT22;8313;49.894;8.084;2023-05-23T08:15:27;17.90;99.90
16408;DHT22;8313;49.894;8.084;2023-05-23T08:18:03;17.90;99.90
16408;DHT22;8313;49.894;8.084;2023-05-23T08:20:28;17.90;99.90
16408;DHT22;8313;49.894;8.084;2023-05-23T08:22:59;18.00;99.90
16408;DHT22;8313;49.894;8.084;2023-05-23T08:25:26;17.90;99.90
16408;DHT22;8313;49.894;8.084;2023-05-23T08:27:59;18.00;99.90
16408;DHT22;8313;49.894;8.084;2023-05-23T08:30:54;18.00;99.90
16408;DHT22;8313;49.894;8.084;2023-05-23T08:33:21;17.90;99.90
16408;DHT22;8313;49.894;8.084;2023-05-23T08:35:48;18.00;99.90
16408;DHT22;8313;49.894;8.084;2023-05-23T08:38:17;18.00;99.90
16408;DHT22;8313;49.894;8.084;2023-05-23T08:41:00;18.00;99.90
16408;DHT22;8313;49.894;8.084;2023-05-23T08:43:27;18.00;99.90
16408;DHT22;8313;49.894;8.084;2023-05-23T08:45:53;18.00;99.90
16408;DHT22;8313;49.894;8.084;2023-05-23T08:48:21;18.00;99.90
16408;DHT22;8313;49.894;8.084;2023-05-23T08:50:52;18.00;99.90
16408;DHT22;8313;49.894;8.084;2023-05-23T08:53:20;18.10;99.90
16408;DHT22;8313;49.894;8.084;2023-05-23T08:55:52;18.10;99.90
16408;DHT22;8313;49.894;8.084;2023-05-23T08:58:22;18.10;99.90
16408;DHT22;8313;49.894;8.084;2023-05-23T09:00:54;18.20;99.90
16408;DHT22;8313;49.894;8.084;2023-05-23T09:03:21;18.10;99.90
16408;DHT22;8313;49.894;8.084;2023-05-23T09:06:11;18.20;99.90
16408;DHT22;8313;49.894;8.084;2023-05-23T09:08:38;18.20;99.90
16408;DHT22;8313;49.894;8.084;2023-05-23T09:11:04;18.30;99.90
16408;DHT22;8313;49.894;8.084;2023-05-23T09:13:33;18.40;99.90
16408;DHT22;8313;49.894;8.084;2023-05-23T09:16:02;18.40;99.90
16408;DHT22;8313;49.894;8.084;2023-05-23T09:18:38;18.40;99.90
16408;DHT22;8313;49.894;8.084;2023-05-23T09:21:06;18.40;99.90
16408;DHT22;8313;49.894;8.084;2023-05-23T09:23:35;18.40;99.90
16408;DHT22;8313;49.894;8.084;2023-05-23T09:26:06;18.40;99.90
16408;DHT22;8313;49.894;8.084;2023-05-23T09:28:32;18.40;99.90
16408;DHT22;8313;49.894;8.084;2023-05-23T09:31:03;18.40;99.90
16408;DHT22;8313;49.894;8.084;2023-05-23T09:36:09;18.40;99.90
16408;DHT22;8313;49.894;8.084;2023-05-23T09:38:41;18.40;99.90
16408;DHT22;8313;49.894;8.084;2023-05-23T09:41:09;18.40;99.90
16408;DHT22;8313;49.894;8.084;2023-05-23T09:43:39;18.40;99.90
16408;DHT22;8313;49.894;8.084;2023-05-23T09:46:11;18.50;99.90
16408;DHT22;8313;49.894;8.084;2023-05-23T09:48:37;18.50;99.90
16408;DHT22;8313;49.894;8.084;2023-05-23T09:51:08;18.50;99.90
16408;DHT22;8313;49.894;8.084;2023-05-23T09:53:35;18.50;99.90
16408;DHT22;8313;49.894;8.084;2023-05-23T09:56:04;18.50;99.90
16408;DHT22;8313;49.894;8.084;2023-05-23T09:58:33;18.50;99.90
16408;DHT22;8313;49.894;8.084;2023-05-23T10:01:00;18.60;99.90
16408;DHT22;8313;49.894;8.084;2023-05-23T10:06:24;18.80;99.90
16408;DHT22;8313;49.894;8.084;2023-05-23T10:09:02;18.60;99.90
16408;DHT22;8313;49.894;8.084;2023-05-23T10:14:08;18.60;99.90
16408;DHT22;8313;49.894;8.084;2023-05-23T10:19:34;18.60;99.90
16408;DHT22;8313;49.894;8.084;2023-05-23T10:22:05;18.60;99.90
16408;DHT22;8313;49.894;8.084;2023-05-23T10:24:33;18.60;99.90
16408;DHT22;8313;49.894;8.084;2023-05-23T10:27:00;18.60;99.90
16408;DHT22;8313;49.894;8.084;2023-05-23T10:29:30;18.70;99.90
16408;DHT22;8313;49.894;8.084;2023-05-23T10:31:56;18.80;99.90
16408;DHT22;8313;49.894;8.084;2023-05-23T10:37:06;18.70;99.90
16408;DHT22;8313;49.894;8.084;2023-05-23T10:42:29;18.70;99.90
16408;DHT22;8313;49.894;8.084;2023-05-23T10:47:40;18.80;99.90
16408;DHT22;8313;49.894;8.084;2023-05-23T10:50:07;18.70;99.90
16408;DHT22;8313;49.894;8.084;2023-05-23T10:52:40;18.70;99.90
16408;DHT22;8313;49.894;8.084;2023-05-23T10:55:15;18.70;99.90
16408;DHT22;8313;49.894;8.084;2023-05-23T10:57:44;18.70;99.90
16408;DHT22;8313;49.894;8.084;2023-05-23T11:00:17;18.90;99.90
16408;DHT22;8313;49.894;8.084;2023-05-23T11:02:52;18.80;99.90
16408;DHT22;8313;49.894;8.084;2023-05-23T11:05:23;18.70;99.90
16408;DHT22;8313;49.894;8.084;2023-05-23T11:08:11;18.80;99.90
16408;DHT22;8313;49.894;8.084;2023-05-23T11:13:21;19.10;99.90
16408;DHT22;8313;49.894;8.084;2023-05-23T11:15:48;19.10;99.90
16408;DHT22;8313;49.894;8.084;2023-05-23T11:18:22;19.00;99.90
16408;DHT22;8313;49.894;8.084;2023-05-23T11:20:51;18.90;99.90
16408;DHT22;8313;49.894;8.084;2023-05-23T11:23:17;18.90;99.90
16408;DHT22;8313;49.894;8.084;2023-05-23T11:25:51;19.00;99.90
16408;DHT22;8313;49.894;8.084;2023-05-23T11:28:18;19.00;99.90
16408;DHT22;8313;49.894;8.084;2023-05-23T11:30:47;18.90;99.90
16408;DHT22;8313;49.894;8.084;2023-05-23T11:33:14;19.00;99.90
16408;DHT22;8313;49.894;8.084;2023-05-23T11:35:45;18.90;99.90
16408;DHT22;8313;49.894;8.084;2023-05-23T11:38:13;18.90;99.90
16408;DHT22;8313;49.894;8.084;2023-05-23T11:40:40;19.00;99.90
16408;DHT22;8313;49.894;8.084;2023-05-23T11:43:08;19.00;99.90
16408;DHT22;8313;49.894;8.084;2023-05-23T11:45:35;19.20;99.90
16408;DHT22;8313;49.894;8.084;2023-05-23T11:48:12;19.20;99.90
16408;DHT22;8313;49.894;8.084;2023-05-23T11:50:52;19.10;99.90
16408;DHT22;8313;49.894;8.084;2023-05-23T11:53:20;19.00;99.90
16408;DHT22;8313;49.894;8.084;2023-05-23T11:58:20;19.20;99.90
16408;DHT22;8313;49.894;8.084;2023-05-23T12:00:47;19.10;99.90
16408;DHT22;8313;49.894;8.084;2023-05-23T12:03:13;19.20;99.90
16408;DHT22;8313;49.894;8.084;2023-05-23T12:05:38;19.20;99.90
16408;DHT22;8313;49.894;8.084;2023-05-23T12:08:10;19.10;99.90
16408;DHT22;8313;49.894;8.084;2023-05-23T12:10:36;19.00;99.90
16408;DHT22;8313;49.894;8.084;2023-05-23T12:13:02;19.00;99.90
16408;DHT22;8313;49.894;8.084;2023-05-23T12:15:29;18.80;99.90
16408;DHT22;8313;49.894;8.084;2023-05-23T12:17:55;18.80;99.90
16408;DHT22;8313;49.894;8.084;2023-05-23T12:20:21;18.90;99.90
16408;DHT22;8313;49.894;8.084;2023-05-23T12:22:48;18.90;99.90
16408;DHT22;8313;49.894;8.084;2023-05-23T12:25:14;18.90;99.90
16408;DHT22;8313;49.894;8.084;2023-05-23T12:27:40;18.90;99.90
16408;DHT22;8313;49.894;8.084;2023-05-23T12:30:15;19.00;99.90
16408;DHT22;8313;49.894;8.084;2023-05-23T12:32:42;19.10;99.90
16408;DHT22;8313;49.894;8.084;2023-05-23T12:35:09;19.20;99.90
16408;DHT22;8313;49.894;8.084;2023-05-23T12:37:44;19.10;99.90
16408;DHT22;8313;49.894;8.084;2023-05-23T12:40:14;19.00;99.90
16408;DHT22;8313;49.894;8.084;2023-05-23T12:42:50;18.90;99.90
16408;DHT22;8313;49.894;8.084;2023-05-23T12:45:32;18.80;99.90
16408;DHT22;8313;49.894;8.084;2023-05-23T12:47:59;18.80;99.90
16408;DHT22;8313;49.894;8.084;2023-05-23T12:50:24;18.90;99.90
16408;DHT22;8313;49.894;8.084;2023-05-23T12:52:51;18.90;99.90
16408;DHT22;8313;49.894;8.084;2023-05-23T12:55:17;19.00;99.90
16408;DHT22;8313;49.894;8.084;2023-05-23T12:57:42;19.00;99.90
16408;DHT22;8313;49.894;8.084;2023-05-23T13:00:09;18.90;99.90
16408;DHT22;8313;49.894;8.084;2023-05-23T13:02:36;19.00;99.90
16408;DHT22;8313;49.894;8.084;2023-05-23T13:05:02;19.00;99.90
16408;DHT22;8313;49.894;8.084;2023-05-23T13:07:27;19.00;99.90
16408;DHT22;8313;49.894;8.084;2023-05-23T13:09:53;18.80;99.90
16408;DHT22;8313;49.894;8.084;2023-05-23T13:12:19;18.80;99.90
16408;DHT22;8313;49.894;8.084;2023-05-23T13:14:45;18.80;99.90
16408;DHT22;8313;49.894;8.084;2023-05-23T13:17:11;18.70;99.90
16408;DHT22;8313;49.894;8.084;2023-05-23T13:19:37;18.60;99.90
16408;DHT22;8313;49.894;8.084;2023-05-23T13:22:07;18.60;99.90
16408;DHT22;8313;49.894;8.084;2023-05-23T13:24:37;18.50;99.90
16408;DHT22;8313;49.894;8.084;2023-05-23T13:27:04;18.50;99.90
16408;DHT22;8313;49.894;8.084;2023-05-23T13:29:30;18.50;99.90
16408;DHT22;8313;49.894;8.084;2023-05-23T13:31:56;18.30;99.90
16408;DHT22;8313;49.894;8.084;2023-05-23T13:34:21;18.30;99.90
16408;DHT22;8313;49.894;8.084;2023-05-23T13:36:47;18.30;99.90
16408;DHT22;8313;49.894;8.084;2023-05-23T13:39:13;18.30;99.90
16408;DHT22;8313;49.894;8.084;2023-05-23T13:41:39;18.40;99.90
16408;DHT22;8313;49.894;8.084;2023-05-23T13:44:05;18.30;99.90
16408;DHT22;8313;49.894;8.084;2023-05-23T13:46:30;18.40;99.90
16408;DHT22;8313;49.894;8.084;2023-05-23T13:48:56;18.40;99.90
16408;DHT22;8313;49.894;8.084;2023-05-23T13:51:22;18.50;99.90
16408;DHT22;8313;49.894;8.084;2023-05-23T13:53:47;18.60;99.90
16408;DHT22;8313;49.894;8.084;2023-05-23T13:56:14;18.60;99.90
16408;DHT22;8313;49.894;8.084;2023-05-23T13:58:40;18.50;99.90
16408;DHT22;8313;49.894;8.084;2023-05-23T14:01:07;18.50;99.90
16408;DHT22;8313;49.894;8.084;2023-05-23T14:03:33;18.50;99.90
16408;DHT22;8313;49.894;8.084;2023-05-23T14:05:59;18.50;99.90
16408;DHT22;8313;49.894;8.084;2023-05-23T14:08:25;18.50;99.90
16408;DHT22;8313;49.894;8.084;2023-05-23T14:10:50;18.50;99.90
16408;DHT22;8313;49.894;8.084;2023-05-23T14:13:16;18.50;99.90
16408;DHT22;8313;49.894;8.084;2023-05-23T14:15:42;18.50;99.90
16408;DHT22;8313;49.894;8.084;2023-05-23T14:18:08;18.40;99.90
16408;DHT22;8313;49.894;8.084;2023-05-23T14:20:33;18.50;99.90
16408;DHT22;8313;49.894;8.084;2023-05-23T14:22:59;18.50;99.90
16408;DHT22;8313;49.894;8.084;2023-05-23T14:25:25;18.40;99.90
16408;DHT22;8313;49.894;8.084;2023-05-23T14:27:51;18.40;99.90
16408;DHT22;8313;49.894;8.084;2023-05-23T14:30:16;18.20;99.90
16408;DHT22;8313;49.894;8.084;2023-05-23T14:32:42;18.20;99.90
16408;DHT22;8313;49.894;8.084;2023-05-23T14:35:09;18.20;99.90
16408;DHT22;8313;49.894;8.084;2023-05-23T14:37:35;18.20;99.90
16408;DHT22;8313;49.894;8.084;2023-05-23T14:40:02;18.20;99.90
16408;DHT22;8313;49.894;8.084;2023-05-23T14:42:28;18.20;99.90
16408;DHT22;8313;49.894;8.084;2023-05-23T14:44:53;18.20;99.90
16408;DHT22;8313;49.894;8.084;2023-05-23T14:47:20;18.20;99.90
16408;DHT22;8313;49.894;8.084;2023-05-23T14:49:46;18.20;99.90
16408;DHT22;8313;49.894;8.084;2023-05-23T14:52:11;18.20;99.90
16408;DHT22;8313;49.894;8.084;2023-05-23T14:54:38;18.30;99.90
16408;DHT22;8313;49.894;8.084;2023-05-23T14:57:08;18.30;99.90
16408;DHT22;8313;49.894;8.084;2023-05-23T14:59:34;18.20;99.90
16408;DHT22;8313;49.894;8.084;2023-05-23T15:02:01;18.30;99.90
16408;DHT22;8313;49.894;8.084;2023-05-23T15:04:26;18.40;99.90
16408;DHT22;8313;49.894;8.084;2023-05-23T15:06:52;18.40;99.90
16408;DHT22;8313;49.894;8.084;2023-05-23T15:09:18;18.40;99.90
16408;DHT22;8313;49.894;8.084;2023-05-23T15:11:44;18.40;99.90
16408;DHT22;8313;49.894;8.084;2023-05-23T15:14:11;18.40;99.90
16408;DHT22;8313;49.894;8.084;2023-05-23T15:16:37;18.40;99.90
16408;DHT22;8313;49.894;8.084;2023-05-23T15:19:03;18.50;99.90
16408;DHT22;8313;49.894;8.084;2023-05-23T15:21:29;18.40;99.90
16408;DHT22;8313;49.894;8.084;2023-05-23T15:23:56;18.40;99.90
16408;DHT22;8313;49.894;8.084;2023-05-23T15:26:24;18.40;99.90
16408;DHT22;8313;49.894;8.084;2023-05-23T15:28:49;18.40;99.90
16408;DHT22;8313;49.894;8.084;2023-05-23T15:31:15;18.50;99.90
16408;DHT22;8313;49.894;8.084;2023-05-23T15:33:41;18.40;99.90
16408;DHT22;8313;49.894;8.084;2023-05-23T15:36:07;18.40;99.90
16408;DHT22;8313;49.894;8.084;2023-05-23T15:38:33;18.30;99.90
16408;DHT22;8313;49.894;8.084;2023-05-23T15:40:58;18.20;99.90
16408;DHT22;8313;49.894;8.084;2023-05-23T15:43:24;18.20;99.90
16408;DHT22;8313;49.894;8.084;2023-05-23T15:45:50;18.20;99.90
16408;DHT22;8313;49.894;8.084;2023-05-23T15:48:16;18.20;99.90
16408;DHT22;8313;49.894;8.084;2023-05-23T15:50:42;18.20;99.90
16408;DHT22;8313;49.894;8.084;2023-05-23T15:53:08;18.30;99.90
16408;DHT22;8313;49.894;8.084;2023-05-23T15:55:34;18.40;99.90
16408;DHT22;8313;49.894;8.084;2023-05-23T15:58:00;18.40;99.90
16408;DHT22;8313;49.894;8.084;2023-05-23T16:00:26;18.30;99.90
16408;DHT22;8313;49.894;8.084;2023-05-23T16:02:52;18.30;99.90
16408;DHT22;8313;49.894;8.084;2023-05-23T16:05:18;18.30;99.90
16408;DHT22;8313;49.894;8.084;2023-05-23T16:07:44;18.40;99.90
16408;DHT22;8313;49.894;8.084;2023-05-23T16:10:10;18.40;99.90
16408;DHT22;8313;49.894;8.084;2023-05-23T16:12:36;18.30;99.90
16408;DHT22;8313;49.894;8.084;2023-05-23T16:15:02;18.30;99.90
16408;DHT22;8313;49.894;8.084;2023-05-23T16:17:27;18.20;99.90
16408;DHT22;8313;49.894;8.084;2023-05-23T16:19:53;18.30;99.90